Time;durP1;ratioP1;P1;durP2;ratioP2;P2;SDS_P1;SDS_P2;PMS_P1;PMS_P2;Temp;Humidity;BMP_temperature;BMP_pressure;BME280_temperature;BME280_humidity;BME280_pressure;Samples;Min_cycle;Max_cycle;Signal;HPM_P1;HPM_P2
2024/01/06 00:02:14;;;;;;;31.55;15.27;;;;;;;-146.25;100.00;70816.00;5072265;28;20040;-59
2024/01/06 00:04:39;;;;;;;32.15;15.88;;;;;;;-146.25;100.00;70816.00;5070198;28;20036;-59
2024/01/06 00:07:05;;;;;;;32.22;14.90;;;;;;;-146.25;100.00;70816.00;5073899;28;20380;-59
2024/01/06 00:09:30;;;;;;;31.52;15.20;;;;;;;-146.25;100.00;70816.00;5072856;28;20043;-58
2024/01/06 00:11:55;;;;;;;32.78;15.45;;;;;;;-146.25;100.00;70816.00;5070813;28;20025;-58
2024/01/06 00:14:21;;;;;;;30.02;13.05;;;;;;;-146.25;100.00;70816.00;5071258;28;20165;-58
2024/01/06 00:16:46;;;;;;;29.90;13.02;;;;;;;-146.25;100.00;70816.00;5071463;28;20043;-58
2024/01/06 00:19:11;;;;;;;30.95;13.10;;;;;;;-146.25;100.00;70816.00;5070470;28;20832;-59
2024/01/06 00:21:36;;;;;;;30.00;12.95;;;;;;;-146.25;100.00;70816.00;5073097;28;20029;-59
2024/01/06 00:24:02;;;;;;;29.45;12.40;;;;;;;-146.25;100.00;70816.00;5070913;28;20048;-60
2024/01/06 00:26:27;;;;;;;30.05;12.57;;;;;;;-146.25;100.00;70816.00;5072401;28;20040;-61
2024/01/06 00:28:52;;;;;;;30.58;13.70;;;;;;;-146.25;100.00;70816.00;5070012;28;20052;-60
2024/01/06 00:31:18;;;;;;;27.17;10.40;;;;;;;-146.25;100.00;70816.00;5072918;28;20028;-60
2024/01/06 00:33:43;;;;;;;28.58;11.80;;;;;;;-146.25;100.00;70816.00;5069601;28;20040;-59
2024/01/06 00:36:09;;;;;;;27.92;11.48;;;;;;;-146.25;100.00;70816.00;5068281;28;20119;-60
2024/01/06 00:38:35;;;;;;;30.33;13.27;;;;;;;-146.25;100.00;70816.00;5068247;28;20127;-61
2024/01/06 00:41:00;;;;;;;29.15;12.73;;;;;;;-146.25;100.00;70816.00;5070173;28;20092;-62
2024/01/06 00:43:26;;;;;;;30.58;12.48;;;;;;;-146.25;100.00;70816.00;5069613;28;20034;-60
2024/01/06 00:45:51;;;;;;;31.20;13.48;;;;;;;-146.25;100.00;70816.00;5069815;28;20029;-60
2024/01/06 00:48:16;;;;;;;27.17;11.20;;;;;;;-146.25;100.00;70816.00;5071096;28;20037;-59
2024/01/06 00:50:41;;;;;;;28.67;11.38;;;;;;;-146.25;100.00;70816.00;5072074;28;20039;-59
2024/01/06 00:53:07;;;;;;;28.95;12.55;;;;;;;-146.25;100.00;70816.00;5071062;28;20037;-61
2024/01/06 00:55:32;;;;;;;28.00;10.82;;;;;;;-146.25;100.00;70816.00;5070219;28;20039;-59
2024/01/06 00:57:57;;;;;;;29.67;12.13;;;;;;;-146.25;100.00;70816.00;5069648;28;20040;-57
2024/01/06 01:00:22;;;;;;;27.75;12.07;;;;;;;-146.25;100.00;70816.00;5068729;28;20486;-59
2024/01/06 01:02:48;;;;;;;29.90;12.90;;;;;;;-146.25;100.00;70816.00;5071252;28;20081;-57
2024/01/06 01:05:13;;;;;;;27.13;10.82;;;;;;;-146.25;100.00;70816.00;5070775;28;20079;-57
2024/01/06 01:07:39;;;;;;;29.23;11.23;;;;;;;-146.25;100.00;70816.00;5071887;28;20032;-59
2024/01/06 01:10:05;;;;;;;26.73;10.50;;;;;;;-146.25;100.00;70816.00;5072493;28;20086;-59
2024/01/06 01:12:31;;;;;;;27.55;11.27;;;;;;;-146.25;100.00;70816.00;5072720;28;20136;-58
2024/01/06 01:14:56;;;;;;;28.75;10.95;;;;;;;-146.25;100.00;70816.00;5071250;28;20067;-58
2024/01/06 01:17:21;;;;;;;26.65;10.82;;;;;;;-146.25;100.00;70816.00;5072567;28;20075;-59
2024/01/06 01:19:46;;;;;;;29.35;10.50;;;;;;;-146.25;100.00;70816.00;5072348;28;20272;-60
2024/01/06 01:22:12;;;;;;;26.10;10.32;;;;;;;-146.25;100.00;70816.00;5072382;28;20079;-59
2024/01/06 01:24:37;;;;;;;27.05;10.88;;;;;;;-146.25;100.00;70816.00;5069828;28;20480;-59
2024/01/06 01:27:03;;;;;;;26.00;10.43;;;;;;;-146.25;100.00;70816.00;5070950;28;20040;-59
2024/01/06 01:29:28;;;;;;;25.08;10.02;;;;;;;-146.25;100.00;70816.00;5071326;28;20480;-60
2024/01/06 01:31:53;;;;;;;25.35;10.07;;;;;;;-146.25;100.00;70816.00;5073347;28;20074;-60
2024/01/06 01:34:19;;;;;;;26.42;9.93;;;;;;;-146.25;100.00;70816.00;5072638;28;20074;-60
2024/01/06 01:36:44;;;;;;;28.90;10.10;;;;;;;-146.25;100.00;70816.00;5075496;28;20081;-59
2024/01/06 01:39:10;;;;;;;25.73;9.75;;;;;;;-146.25;100.00;70816.00;5072693;28;20028;-59
2024/01/06 01:41:35;;;;;;;26.33;10.00;;;;;;;-146.25;100.00;70816.00;5073062;28;20032;-61
2024/01/06 01:44:01;;;;;;;25.83;9.80;;;;;;;-146.25;100.00;70816.00;5072445;28;20392;-59
2024/01/06 01:46:27;;;;;;;25.67;9.80;;;;;;;-146.25;100.00;70816.00;5074864;28;20082;-59
2024/01/06 01:48:56;;;;;;;25.60;10.02;;;;;;;-146.25;100.00;70816.00;5072897;28;20044;-60
2024/01/06 01:51:24;;;;;;;26.42;9.88;;;;;;;-146.25;100.00;70816.00;5074097;28;20089;-58
2024/01/06 01:53:50;;;;;;;24.63;9.68;;;;;;;-146.25;100.00;70816.00;5074094;28;20037;-59
2024/01/06 01:56:16;;;;;;;27.23;10.55;;;;;;;-146.25;100.00;70816.00;5063791;28;20127;-58
2024/01/06 01:58:41;;;;;;;25.90;10.48;;;;;;;-146.25;100.00;70816.00;5074697;28;20471;-57
2024/01/06 02:01:08;;;;;;;25.13;10.20;;;;;;;-146.25;100.00;70816.00;5073555;28;20054;-59
2024/01/06 02:03:34;;;;;;;26.50;9.95;;;;;;;-146.25;100.00;70816.00;5073947;28;20044;-59
2024/01/06 02:06:00;;;;;;;27.25;11.10;;;;;;;-146.25;100.00;70816.00;5070224;28;20088;-59
2024/01/06 02:08:25;;;;;;;26.50;9.82;;;;;;;-146.25;100.00;70816.00;5073970;28;20033;-59
2024/01/06 02:10:51;;;;;;;24.60;9.68;;;;;;;-146.25;100.00;70816.00;5072490;28;20063;-59
2024/01/06 02:13:17;;;;;;;25.33;9.68;;;;;;;-146.25;100.00;70816.00;5073362;28;20028;-61
2024/01/06 02:15:42;;;;;;;23.45;8.60;;;;;;;-146.25;100.00;70816.00;5074354;28;20511;-58
2024/01/06 02:18:07;;;;;;;23.65;9.98;;;;;;;-146.25;100.00;70816.00;5076336;28;20044;-58
2024/01/06 02:20:33;;;;;;;25.42;9.60;;;;;;;-146.25;100.00;70816.00;5075011;28;20059;-59
2024/01/06 02:23:00;;;;;;;24.17;9.55;;;;;;;-146.25;100.00;70816.00;5072126;28;20036;-59
2024/01/06 02:25:26;;;;;;;24.70;9.25;;;;;;;-146.25;100.00;70816.00;5075535;28;20058;-59
2024/01/06 02:27:51;;;;;;;25.27;9.80;;;;;;;-146.25;100.00;70816.00;5075159;28;20032;-59
2024/01/06 02:30:16;;;;;;;24.35;8.93;;;;;;;-146.25;100.00;70816.00;5072385;28;20029;-58
2024/01/06 02:32:42;;;;;;;23.77;8.85;;;;;;;-146.25;100.00;70816.00;5073369;28;20036;-59
2024/01/06 02:35:07;;;;;;;22.70;8.25;;;;;;;-146.25;100.00;70816.00;5073045;28;20036;-59
2024/01/06 02:37:33;;;;;;;23.95;9.00;;;;;;;-146.25;100.00;70816.00;5073378;28;20047;-59
2024/01/06 02:39:58;;;;;;;22.08;8.52;;;;;;;-146.25;100.00;70816.00;5072677;28;20032;-59
2024/01/06 02:42:25;;;;;;;23.02;8.23;;;;;;;-146.25;100.00;70816.00;5070025;28;20031;-59
2024/01/06 02:44:50;;;;;;;22.55;8.15;;;;;;;-146.25;100.00;70816.00;5072404;28;20032;-58
2024/01/06 02:47:15;;;;;;;22.73;7.60;;;;;;;-146.25;100.00;70816.00;5073278;28;20048;-59
2024/01/06 02:49:41;;;;;;;23.80;8.10;;;;;;;-146.25;100.00;70816.00;5071386;28;20041;-59
2024/01/06 02:52:06;;;;;;;21.92;7.65;;;;;;;-146.25;100.00;70816.00;5072101;28;20442;-60
2024/01/06 02:54:31;;;;;;;21.60;6.97;;;;;;;-146.25;100.00;70816.00;5075927;28;20354;-59
2024/01/06 02:56:57;;;;;;;21.92;7.80;;;;;;;-146.25;100.00;70816.00;5073263;28;20079;-59
2024/01/06 02:59:22;;;;;;;21.80;7.55;;;;;;;-146.25;100.00;70816.00;5073292;28;20098;-57
2024/01/06 03:01:47;;;;;;;22.63;8.25;;;;;;;-146.25;100.00;70816.00;5074183;28;20071;-58
2024/01/06 03:04:13;;;;;;;23.13;8.82;;;;;;;-146.25;100.00;70816.00;5073318;28;20041;-58
2024/01/06 03:06:38;;;;;;;22.27;8.23;;;;;;;-146.25;100.00;70816.00;5071547;28;20119;-59
2024/01/06 03:09:03;;;;;;;23.92;10.23;;;;;;;-146.25;100.00;70816.00;5073549;28;20488;-59
2024/01/06 03:11:28;;;;;;;23.00;8.10;;;;;;;-146.25;100.00;70816.00;5073180;28;20399;-59
2024/01/06 03:13:54;;;;;;;21.02;7.38;;;;;;;-146.25;100.00;70816.00;5071233;28;20407;-59
2024/01/06 03:16:19;;;;;;;23.30;7.85;;;;;;;-146.25;100.00;70816.00;5072150;28;20082;-58
2024/01/06 03:18:46;;;;;;;21.13;7.50;;;;;;;-146.25;100.00;70816.00;5072079;28;20037;-59
2024/01/06 03:21:18;;;;;;;21.45;6.95;;;;;;;-146.25;100.00;70816.00;5071604;28;20039;-59
2024/01/06 03:23:44;;;;;;;21.25;7.10;;;;;;;-146.25;100.00;70816.00;5075348;28;20430;-60
2024/01/06 03:26:09;;;;;;;20.40;6.50;;;;;;;-146.25;100.00;70816.00;5071618;28;20032;-59
2024/01/06 03:28:34;;;;;;;21.15;6.63;;;;;;;-146.25;100.00;70816.00;5074627;28;20036;-58
2024/01/06 03:30:59;;;;;;;20.30;7.03;;;;;;;-146.25;100.00;70816.00;5071187;28;20090;-60
2024/01/06 03:33:25;;;;;;;20.20;6.32;;;;;;;-146.25;100.00;70816.00;5072150;28;20041;-59
2024/01/06 03:35:50;;;;;;;20.95;6.75;;;;;;;-146.25;100.00;70816.00;5072359;28;20109;-59
2024/01/06 03:38:15;;;;;;;20.27;6.50;;;;;;;-146.25;100.00;70816.00;5071059;28;20089;-58
2024/01/06 03:40:40;;;;;;;19.70;6.95;;;;;;;-146.25;100.00;70816.00;5074071;28;20123;-58
2024/01/06 03:43:06;;;;;;;21.55;7.75;;;;;;;-146.25;100.00;70816.00;5073671;28;20048;-58
2024/01/06 03:45:31;;;;;;;21.70;8.48;;;;;;;-146.25;100.00;70816.00;5073731;28;20425;-58
2024/01/06 03:47:56;;;;;;;20.90;6.53;;;;;;;-146.25;100.00;70816.00;5073705;28;20027;-59
2024/01/06 03:50:21;;;;;;;20.92;7.38;;;;;;;-146.25;100.00;70816.00;5070617;28;20051;-58
2024/01/06 03:52:48;;;;;;;20.95;7.50;;;;;;;-146.25;100.00;70816.00;5071741;28;20154;-58
2024/01/06 03:55:14;;;;;;;20.50;6.85;;;;;;;-146.25;100.00;70816.00;5071426;28;20145;-59
2024/01/06 03:57:39;;;;;;;20.80;7.65;;;;;;;-146.25;100.00;70816.00;5073883;28;20861;-59
2024/01/06 04:00:05;;;;;;;21.13;7.20;;;;;;;-146.25;100.00;70816.00;5073084;28;20247;-58
2024/01/06 04:02:30;;;;;;;22.17;7.97;;;;;;;-146.25;100.00;70816.00;5071670;28;20047;-60
2024/01/06 04:04:55;;;;;;;21.95;7.95;;;;;;;-146.25;100.00;70816.00;5071513;28;20028;-60
2024/01/06 04:07:21;;;;;;;21.65;8.18;;;;;;;-146.25;100.00;70816.00;5072182;28;20530;-60
2024/01/06 04:09:46;;;;;;;20.77;7.70;;;;;;;-146.25;100.00;70816.00;5073792;28;20039;-60
2024/01/06 04:12:12;;;;;;;20.90;7.47;;;;;;;-146.25;100.00;70816.00;5075282;28;20040;-60
2024/01/06 04:14:37;;;;;;;23.70;8.50;;;;;;;-146.25;100.00;70816.00;5071656;28;20028;-59
2024/01/06 04:17:02;;;;;;;22.83;8.55;;;;;;;-146.25;100.00;70816.00;5072038;28;20024;-59
2024/01/06 04:19:28;;;;;;;22.42;8.20;;;;;;;-146.25;100.00;70816.00;5070933;28;20479;-60
2024/01/06 04:21:54;;;;;;;22.17;8.05;;;;;;;-146.25;100.00;70816.00;5070989;28;20487;-59
2024/01/06 04:24:19;;;;;;;23.65;8.55;;;;;;;-146.25;100.00;70816.00;5076456;28;20480;-60
2024/01/06 04:26:45;;;;;;;22.70;7.88;;;;;;;-146.25;100.00;70816.00;5071203;28;20040;-59
2024/01/06 04:29:11;;;;;;;23.33;9.07;;;;;;;-146.25;100.00;70816.00;5071939;28;20032;-59
2024/01/06 04:31:37;;;;;;;22.65;8.55;;;;;;;-146.25;100.00;70816.00;5075643;28;20488;-59
2024/01/06 04:34:03;;;;;;;23.70;9.10;;;;;;;-146.25;100.00;70816.00;5072077;28;20193;-60
2024/01/06 04:36:28;;;;;;;22.30;8.10;;;;;;;-146.25;100.00;70816.00;5071093;28;20479;-60
2024/01/06 04:38:54;;;;;;;22.30;8.77;;;;;;;-146.25;100.00;70816.00;5074027;28;20063;-60
2024/01/06 04:41:19;;;;;;;22.92;9.63;;;;;;;-146.25;100.00;70816.00;5071549;28;20028;-62
2024/01/06 04:43:44;;;;;;;23.77;7.32;;;;;;;-146.25;100.00;70816.00;5070870;28;20068;-61
2024/01/06 04:46:10;;;;;;;22.33;8.40;;;;;;;-146.25;100.00;70816.00;5073708;28;20035;-60
2024/01/06 04:48:35;;;;;;;22.73;8.10;;;;;;;-146.25;100.00;70816.00;5067587;28;20033;-59
2024/01/06 04:51:03;;;;;;;21.85;7.80;;;;;;;-146.25;100.00;70816.00;5072318;28;20028;-58
2024/01/06 04:53:28;;;;;;;21.13;7.80;;;;;;;-146.25;100.00;70816.00;5068070;28;20044;-58
2024/01/06 04:55:54;;;;;;;23.27;8.43;;;;;;;-146.25;100.00;70816.00;5070025;28;20036;-59
2024/01/06 04:58:19;;;;;;;23.38;8.80;;;;;;;-146.25;100.00;70816.00;5067809;28;20101;-59
2024/01/06 05:00:44;;;;;;;22.92;8.80;;;;;;;-146.25;100.00;70816.00;5070842;28;20492;-61
2024/01/06 05:03:10;;;;;;;22.30;8.18;;;;;;;-146.25;100.00;70816.00;5071693;28;20047;-59
2024/01/06 05:05:35;;;;;;;22.20;7.70;;;;;;;-146.25;100.00;70816.00;5070796;28;20024;-59
2024/01/06 05:08:01;;;;;;;21.55;8.32;;;;;;;-146.25;100.00;70816.00;5070686;28;20519;-61
2024/01/06 05:10:26;;;;;;;22.27;8.15;;;;;;;-146.25;100.00;70816.00;5064991;28;20116;-60
2024/01/06 05:12:51;;;;;;;22.40;7.88;;;;;;;-146.25;100.00;70816.00;5076967;28;20093;-60
2024/01/06 05:15:17;;;;;;;22.73;8.02;;;;;;;-146.25;100.00;70816.00;5076021;28;20468;-60
2024/01/06 05:17:42;;;;;;;22.77;8.15;;;;;;;-146.25;100.00;70816.00;5073299;28;20028;-59
2024/01/06 05:20:07;;;;;;;22.88;8.23;;;;;;;-146.25;100.00;70816.00;5075753;28;20043;-59
2024/01/06 05:22:33;;;;;;;22.00;7.57;;;;;;;-146.25;100.00;70816.00;5075351;28;20040;-61
2024/01/06 05:24:58;;;;;;;22.73;8.15;;;;;;;-146.25;100.00;70816.00;5074479;28;20028;-60
2024/01/06 05:27:23;;;;;;;21.98;7.78;;;;;;;-146.25;100.00;70816.00;5074085;28;20117;-60
2024/01/06 05:29:49;;;;;;;23.15;7.60;;;;;;;-146.25;100.00;70816.00;5074981;28;20042;-60
2024/01/06 05:32:16;;;;;;;22.05;8.25;;;;;;;-146.25;100.00;70816.00;5076415;28;20053;-59
2024/01/06 05:34:41;;;;;;;22.65;8.38;;;;;;;-146.25;100.00;70816.00;5077912;28;20487;-59
2024/01/06 05:37:06;;;;;;;21.23;7.72;;;;;;;-146.25;100.00;70816.00;5075641;28;20094;-59
2024/01/06 05:39:31;;;;;;;23.00;8.43;;;;;;;-146.25;100.00;70816.00;5073506;28;20034;-59
2024/01/06 05:41:57;;;;;;;21.95;8.45;;;;;;;-146.25;100.00;70816.00;5073828;28;20024;-58
2024/01/06 05:44:22;;;;;;;22.05;7.00;;;;;;;-146.25;100.00;70816.00;5076525;28;20068;-58
2024/01/06 05:46:47;;;;;;;23.67;8.60;;;;;;;-146.25;100.00;70816.00;5064358;28;20536;-58
2024/01/06 05:49:13;;;;;;;22.50;7.68;;;;;;;-146.25;100.00;70816.00;5073171;28;20040;-59
2024/01/06 05:51:44;;;;;;;20.38;6.93;;;;;;;-146.25;100.00;70816.00;5074830;28;20036;-58
2024/01/06 05:54:09;;;;;;;21.33;8.07;;;;;;;-146.25;100.00;70816.00;5072400;28;20047;-58
2024/01/06 05:56:34;;;;;;;22.17;8.00;;;;;;;-146.25;100.00;70816.00;5072613;28;20024;-57
2024/01/06 05:59:00;;;;;;;22.58;8.63;;;;;;;-146.25;100.00;70816.00;5072868;28;20036;-58
2024/01/06 06:01:25;;;;;;;20.63;6.07;;;;;;;-146.25;100.00;70816.00;5074646;28;20074;-59
2024/01/06 06:03:50;;;;;;;21.42;7.00;;;;;;;-146.25;100.00;70816.00;5075300;28;20036;-58
2024/01/06 06:06:16;;;;;;;22.52;8.05;;;;;;;-146.25;100.00;70816.00;5071999;28;20029;-58
2024/01/06 06:08:43;;;;;;;21.33;7.00;;;;;;;-146.25;100.00;70816.00;5074884;28;20059;-58
2024/01/06 06:11:11;;;;;;;22.90;7.50;;;;;;;-146.25;100.00;70816.00;5073577;28;20044;-59
2024/01/06 06:13:43;;;;;;;22.08;7.25;;;;;;;-146.25;100.00;70816.00;5076063;28;20141;-58
2024/01/06 06:16:14;;;;;;;23.40;7.88;;;;;;;-146.25;100.00;70816.00;5074058;28;20040;-60
2024/01/06 06:18:40;;;;;;;21.27;7.38;;;;;;;-146.25;100.00;70816.00;5075245;28;20403;-59
2024/01/06 06:21:07;;;;;;;21.92;7.57;;;;;;;-146.25;100.00;70816.00;5071302;28;20044;-59
2024/01/06 06:23:33;;;;;;;21.65;7.85;;;;;;;-146.25;100.00;70816.00;5072939;28;20078;-60
2024/01/06 06:25:59;;;;;;;21.27;6.90;;;;;;;-146.25;100.00;70816.00;5073897;28;20032;-59
2024/01/06 06:28:24;;;;;;;21.40;7.05;;;;;;;-146.25;100.00;70816.00;5073488;28;20492;-59
2024/01/06 06:30:50;;;;;;;21.58;7.50;;;;;;;-146.25;100.00;70816.00;5072852;28;20075;-59
2024/01/06 06:33:15;;;;;;;23.08;8.57;;;;;;;-146.25;100.00;70816.00;5074988;28;20113;-58
2024/01/06 06:35:40;;;;;;;22.20;7.22;;;;;;;-146.25;100.00;70816.00;5074000;28;20694;-58
2024/01/06 06:38:06;;;;;;;21.38;7.13;;;;;;;-146.25;100.00;70816.00;5070672;28;20302;-58
2024/01/06 06:40:31;;;;;;;23.13;7.53;;;;;;;-146.25;100.00;70816.00;5071596;28;20036;-59
2024/01/06 06:42:56;;;;;;;21.63;6.57;;;;;;;-146.25;100.00;70816.00;5072495;28;20020;-59
2024/01/06 06:45:22;;;;;;;22.83;6.90;;;;;;;-146.25;100.00;70816.00;5076116;28;20433;-59
2024/01/06 06:47:49;;;;;;;22.60;7.25;;;;;;;-146.25;100.00;70816.00;5073848;28;20028;-58
2024/01/06 06:50:18;;;;;;;22.95;7.80;;;;;;;-146.25;100.00;70816.00;5077915;28;20039;-59
2024/01/06 06:52:44;;;;;;;22.55;7.30;;;;;;;-146.25;100.00;70816.00;5074978;28;20042;-59
2024/01/06 06:55:10;;;;;;;21.27;7.45;;;;;;;-146.25;100.00;70816.00;5074446;28;20024;-58
2024/01/06 06:57:36;;;;;;;23.23;8.05;;;;;;;-146.25;100.00;70816.00;5076635;28;20655;-59
2024/01/06 07:00:01;;;;;;;22.48;7.88;;;;;;;-146.25;100.00;70816.00;5082351;28;20039;-59
2024/01/06 07:02:27;;;;;;;22.58;8.10;;;;;;;-146.25;100.00;70816.00;5082199;28;20033;-59
2024/01/06 07:04:53;;;;;;;23.70;8.80;;;;;;;-146.25;100.00;70816.00;5078079;28;20044;-59
2024/01/06 07:07:19;;;;;;;24.13;8.15;;;;;;;-146.25;100.00;70816.00;5072227;28;20039;-59
2024/01/06 07:09:44;;;;;;;22.85;8.07;;;;;;;-146.25;100.00;70816.00;5072284;28;20040;-57
2024/01/06 07:12:09;;;;;;;22.20;8.00;;;;;;;-146.25;100.00;70816.00;5071875;28;20032;-58
2024/01/06 07:14:34;;;;;;;22.48;7.88;;;;;;;-146.25;100.00;70816.00;5072484;28;20119;-58
2024/01/06 07:17:00;;;;;;;22.98;7.88;;;;;;;-146.25;100.00;70816.00;5070932;28;20085;-59
2024/01/06 07:19:25;;;;;;;22.10;7.85;;;;;;;-146.25;100.00;70816.00;5070660;28;20399;-58
2024/01/06 07:21:50;;;;;;;23.17;8.95;;;;;;;-146.25;100.00;70816.00;5072025;28;20040;-58
2024/01/06 07:24:16;;;;;;;24.40;9.98;;;;;;;-146.25;100.00;70816.00;5070347;28;20360;-59
2024/01/06 07:26:41;;;;;;;23.63;8.32;;;;;;;-146.25;100.00;70816.00;5069482;28;20028;-58
2024/01/06 07:29:07;;;;;;;24.63;8.23;;;;;;;-146.25;100.00;70816.00;5070242;28;20054;-59
2024/01/06 07:31:33;;;;;;;22.23;7.53;;;;;;;-146.25;100.00;70816.00;5070107;28;20270;-58
2024/01/06 07:33:58;;;;;;;24.02;8.60;;;;;;;-146.25;100.00;70816.00;5069673;28;20047;-58
2024/01/06 07:36:24;;;;;;;23.83;9.45;;;;;;;-146.25;100.00;70816.00;5071542;28;20032;-58
2024/01/06 07:38:49;;;;;;;26.52;8.98;;;;;;;-146.25;100.00;70816.00;5059512;28;20437;-58
2024/01/06 07:41:14;;;;;;;24.50;8.90;;;;;;;-146.25;100.00;70816.00;5069950;28;20032;-58
2024/01/06 07:43:39;;;;;;;24.63;9.57;;;;;;;-146.25;100.00;70816.00;5069292;28;20125;-58
2024/01/06 07:46:06;;;;;;;24.80;8.68;;;;;;;-146.25;100.00;70816.00;5069990;28;20036;-60
2024/01/06 07:48:32;;;;;;;25.00;8.82;;;;;;;-146.25;100.00;70816.00;5068084;28;20409;-60
2024/01/06 07:50:57;;;;;;;25.25;9.15;;;;;;;-146.25;100.00;70816.00;5068493;28;20078;-59
2024/01/06 07:53:22;;;;;;;26.42;10.57;;;;;;;-146.25;100.00;70816.00;5066971;28;20060;-60
2024/01/06 07:55:48;;;;;;;26.15;8.98;;;;;;;-146.25;100.00;70816.00;5088505;28;20104;-60
2024/01/06 07:58:13;;;;;;;25.13;10.57;;;;;;;-146.25;100.00;70816.00;5089259;28;20526;-59
2024/01/06 08:00:38;;;;;;;24.70;9.45;;;;;;;-146.25;100.00;70816.00;5082697;28;20037;-60
2024/01/06 08:03:05;;;;;;;26.77;10.25;;;;;;;-146.25;100.00;70816.00;5071424;28;20028;-61
2024/01/06 08:05:31;;;;;;;25.70;10.60;;;;;;;-146.25;100.00;70816.00;5075981;28;20028;-60
2024/01/06 08:07:56;;;;;;;25.88;9.85;;;;;;;-146.25;100.00;70816.00;5080103;28;20043;-61
2024/01/06 08:10:22;;;;;;;26.05;9.70;;;;;;;-146.25;100.00;70816.00;5079912;28;20047;-60
2024/01/06 08:12:48;;;;;;;25.02;8.73;;;;;;;-146.25;100.00;70816.00;5088736;28;20031;-59
2024/01/06 08:15:13;;;;;;;24.58;8.43;;;;;;;-146.25;100.00;70816.00;5064140;28;20511;-59
2024/01/06 08:17:40;;;;;;;25.08;8.65;;;;;;;-146.25;100.00;70816.00;5074565;28;20035;-59
2024/01/06 08:20:06;;;;;;;25.33;9.30;;;;;;;-146.25;100.00;70816.00;5079834;28;20468;-60
2024/01/06 08:22:32;;;;;;;25.33;9.38;;;;;;;-146.25;100.00;70816.00;5073366;28;20094;-58
2024/01/06 08:24:57;;;;;;;25.42;9.05;;;;;;;-146.25;100.00;70816.00;5078557;28;20427;-60
2024/01/06 08:27:23;;;;;;;26.58;9.18;;;;;;;-146.25;100.00;70816.00;5071682;28;20031;-60
2024/01/06 08:29:49;;;;;;;25.85;9.48;;;;;;;-146.25;100.00;70816.00;5073128;28;20032;-59
2024/01/06 08:32:16;;;;;;;25.80;9.25;;;;;;;-146.25;100.00;70816.00;5084586;28;20036;-58
2024/01/06 08:34:41;;;;;;;24.00;8.07;;;;;;;-146.25;100.00;70816.00;5080595;28;20043;-59
2024/01/06 08:37:07;;;;;;;24.45;9.73;;;;;;;-146.25;100.00;70816.00;5079001;28;20055;-58
2024/01/06 08:39:32;;;;;;;26.33;9.68;;;;;;;-146.25;100.00;70816.00;5091283;28;20031;-59
2024/01/06 08:41:58;;;;;;;25.10;10.18;;;;;;;-146.25;100.00;70816.00;5090506;28;20043;-60
2024/01/06 08:44:23;;;;;;;23.75;9.00;;;;;;;-146.25;100.00;70816.00;5084508;28;20430;-60
2024/01/06 08:46:49;;;;;;;23.83;8.55;;;;;;;-146.25;100.00;70816.00;5082036;28;20033;-59
2024/01/06 08:49:14;;;;;;;22.73;8.70;;;;;;;-146.25;100.00;70816.00;5081846;28;20077;-59
2024/01/06 08:51:40;;;;;;;24.73;10.30;;;;;;;-146.25;100.00;70816.00;5071484;28;20102;-59
2024/01/06 08:54:05;;;;;;;23.05;8.65;;;;;;;-146.25;100.00;70816.00;5074859;28;20086;-59
2024/01/06 08:56:31;;;;;;;25.38;10.05;;;;;;;-146.25;100.00;70816.00;5072732;28;20027;-59
2024/01/06 08:58:57;;;;;;;24.92;9.07;;;;;;;-146.25;100.00;70816.00;5075031;28;20042;-60
2024/01/06 09:01:22;;;;;;;22.48;9.18;;;;;;;-146.25;100.00;70816.00;5072467;28;20308;-58
2024/01/06 09:03:48;;;;;;;23.95;8.77;;;;;;;-146.25;100.00;70816.00;5074485;28;20360;-60
2024/01/06 09:06:14;;;;;;;24.17;9.20;;;;;;;-146.25;100.00;70816.00;5072737;28;20496;-60
2024/01/06 09:08:39;;;;;;;23.55;9.23;;;;;;;-146.25;100.00;70816.00;5076349;28;20028;-59
2024/01/06 09:11:04;;;;;;;25.52;9.75;;;;;;;-146.25;100.00;70816.00;5071307;28;20544;-59
2024/01/06 09:13:29;;;;;;;25.55;8.95;;;;;;;-146.25;100.00;70816.00;5072928;28;20169;-61
2024/01/06 09:15:55;;;;;;;24.38;9.20;;;;;;;-146.25;100.00;70816.00;5074012;28;20028;-59
2024/01/06 09:18:20;;;;;;;24.88;9.80;;;;;;;-146.25;100.00;70816.00;5074999;28;20025;-60
2024/01/06 09:20:48;;;;;;;23.20;8.73;;;;;;;-146.25;100.00;70816.00;5074382;28;20036;-59
2024/01/06 09:23:14;;;;;;;21.95;8.05;;;;;;;-146.25;100.00;70816.00;5073129;28;20089;-60
2024/01/06 09:25:42;;;;;;;23.70;10.25;;;;;;;-146.25;100.00;70816.00;5075617;28;20032;-59
2024/01/06 09:28:07;;;;;;;23.27;9.00;;;;;;;-146.25;100.00;70816.00;5077221;28;20507;-60
2024/01/06 09:30:32;;;;;;;23.55;8.30;;;;;;;-146.25;100.00;70816.00;5063540;28;20040;-59
2024/01/06 09:32:58;;;;;;;24.35;8.93;;;;;;;-146.25;100.00;70816.00;5074753;28;20037;-60
2024/01/06 09:35:23;;;;;;;23.70;9.20;;;;;;;-146.25;100.00;70816.00;5074646;28;20096;-58
2024/01/06 09:37:49;;;;;;;21.73;8.20;;;;;;;-146.25;100.00;70816.00;5079812;28;20669;-59
2024/01/06 09:40:21;;;;;;;22.20;7.65;;;;;;;-146.25;100.00;70816.00;5078849;28;20083;-60
2024/01/06 09:42:46;;;;;;;23.65;8.90;;;;;;;-146.25;100.00;70816.00;5078589;28;20158;-59
2024/01/06 09:45:12;;;;;;;22.33;8.57;;;;;;;-146.25;100.00;70816.00;5084199;28;20120;-59
2024/01/06 09:47:40;;;;;;;23.52;9.13;;;;;;;-146.25;100.00;70816.00;5083289;28;20392;-59
2024/01/06 09:50:09;;;;;;;23.05;9.50;;;;;;;-146.25;100.00;70816.00;5086511;28;20448;-59
2024/01/06 09:52:40;;;;;;;22.60;8.13;;;;;;;-146.25;100.00;70816.00;5086661;28;20409;-60
2024/01/06 09:55:10;;;;;;;21.88;8.05;;;;;;;-146.25;100.00;70816.00;5082272;28;20031;-60
2024/01/06 09:57:35;;;;;;;23.42;7.90;;;;;;;-146.25;100.00;70816.00;5082847;28;20055;-60
2024/01/06 10:00:01;;;;;;;22.52;8.70;;;;;;;-146.25;100.00;70816.00;5084617;28;20032;-62
2024/01/06 10:02:26;;;;;;;22.02;7.90;;;;;;;-146.25;100.00;70816.00;5079638;28;20051;-60
2024/01/06 10:04:51;;;;;;;22.95;8.52;;;;;;;-146.25;100.00;70816.00;5086840;28;20024;-61
2024/01/06 10:07:17;;;;;;;23.88;8.45;;;;;;;-146.25;100.00;70816.00;5073504;28;20488;-60
2024/01/06 10:09:42;;;;;;;23.65;8.75;;;;;;;-146.25;100.00;70816.00;5069155;28;20032;-60
2024/01/06 10:12:08;;;;;;;23.70;8.98;;;;;;;-146.25;100.00;70816.00;5070192;28;20048;-61
2024/01/06 10:14:33;;;;;;;23.08;8.93;;;;;;;-146.25;100.00;70816.00;5071958;28;20438;-61
2024/01/06 10:16:58;;;;;;;21.95;8.02;;;;;;;-146.25;100.00;70816.00;5068059;28;20039;-60
2024/01/06 10:19:24;;;;;;;24.95;9.35;;;;;;;-146.25;100.00;70816.00;5071172;28;20080;-61
2024/01/06 10:21:49;;;;;;;21.63;8.40;;;;;;;-146.25;100.00;70816.00;5072814;28;20463;-60
2024/01/06 10:24:18;;;;;;;24.25;9.00;;;;;;;-146.25;100.00;70816.00;5060040;28;20040;-57
2024/01/06 10:26:45;;;;;;;23.98;9.20;;;;;;;-146.25;100.00;70816.00;5070469;28;20049;-60
2024/01/06 10:29:11;;;;;;;22.95;8.77;;;;;;;-146.25;100.00;70816.00;5070749;28;20051;-61
2024/01/06 10:31:36;;;;;;;24.00;9.35;;;;;;;-146.25;100.00;70816.00;5072629;28;20028;-60
2024/01/06 10:34:02;;;;;;;21.92;8.93;;;;;;;-146.25;100.00;70816.00;5074466;28;20094;-60
2024/01/06 10:36:28;;;;;;;23.45;8.93;;;;;;;-146.25;100.00;70816.00;5077573;28;20040;-60
2024/01/06 10:38:54;;;;;;;23.20;9.05;;;;;;;-146.25;100.00;70816.00;5072042;28;20056;-60
2024/01/06 10:41:21;;;;;;;23.48;8.68;;;;;;;-146.25;100.00;70816.00;5068735;28;20036;-60
2024/01/06 10:43:47;;;;;;;24.15;10.88;;;;;;;-146.25;100.00;70816.00;5073886;28;20039;-60
2024/01/06 10:46:15;;;;;;;24.55;9.98;;;;;;;-146.25;100.00;70816.00;5073170;28;20540;-61
2024/01/06 10:48:45;;;;;;;22.40;8.25;;;;;;;-146.25;100.00;70816.00;5066265;28;20063;-60
2024/01/06 10:51:13;;;;;;;23.92;9.25;;;;;;;-146.25;100.00;70816.00;5088192;28;20467;-61
2024/01/06 10:53:40;;;;;;;22.95;9.10;;;;;;;-146.25;100.00;70816.00;5090855;28;20097;-60